sensor_id;sensor_type;location;lat;lon;timestamp;temperature;humidity
72128;DHT22;60000;51.030;7.024;2023-07-31T00:02:22;16.73;88.47
72128;DHT22;60000;51.030;7.024;2023-07-31T00:04:47;16.73;88.54
72128;DHT22;60000;51.030;7.024;2023-07-31T00:07:14;16.70;88.47
72128;DHT22;60000;51.030;7.024;2023-07-31T00:09:39;16.70;88.57
72128;DHT22;60000;51.030;7.024;2023-07-31T00:12:05;16.71;88.29
72128;DHT22;60000;51.030;7.024;2023-07-31T00:14:30;16.73;88.37
72128;DHT22;60000;51.030;7.024;2023-07-31T00:16:55;16.73;88.20
72128;DHT22;60000;51.030;7.024;2023-07-31T00:19:21;16.76;88.08
72128;DHT22;60000;51.030;7.024;2023-07-31T00:21:46;16.77;87.95
72128;DHT22;60000;51.030;7.024;2023-07-31T00:24:11;16.81;87.43
72128;DHT22;60000;51.030;7.024;2023-07-31T00:26:40;16.84;87.31
72128;DHT22;60000;51.030;7.024;2023-07-31T00:29:05;16.88;87.29
72128;DHT22;60000;51.030;7.024;2023-07-31T00:31:30;16.88;87.20
72128;DHT22;60000;51.030;7.024;2023-07-31T00:33:55;16.90;86.95
72128;DHT22;60000;51.030;7.024;2023-07-31T00:36:21;16.90;87.00
72128;DHT22;60000;51.030;7.024;2023-07-31T00:38:46;16.88;87.12
72128;DHT22;60000;51.030;7.024;2023-07-31T00:41:14;16.90;87.06
72128;DHT22;60000;51.030;7.024;2023-07-31T00:43:40;16.90;86.75
72128;DHT22;60000;51.030;7.024;2023-07-31T00:46:06;16.90;86.94
72128;DHT22;60000;51.030;7.024;2023-07-31T00:48:32;16.88;87.02
72128;DHT22;60000;51.030;7.024;2023-07-31T00:50:58;16.87;87.07
72128;DHT22;60000;51.030;7.024;2023-07-31T00:53:24;16.85;87.01
72128;DHT22;60000;51.030;7.024;2023-07-31T00:55:51;16.85;87.10
72128;DHT22;60000;51.030;7.024;2023-07-31T00:58:20;16.90;86.82
72128;DHT22;60000;51.030;7.024;2023-07-31T01:00:45;16.90;86.74
72128;DHT22;60000;51.030;7.024;2023-07-31T01:03:11;16.92;86.50
72128;DHT22;60000;51.030;7.024;2023-07-31T01:05:46;16.91;86.39
72128;DHT22;60000;51.030;7.024;2023-07-31T01:11:06;16.92;86.28
72128;DHT22;60000;51.030;7.024;2023-07-31T01:13:35;16.88;86.21
72128;DHT22;60000;51.030;7.024;2023-07-31T01:16:00;16.92;86.17
72128;DHT22;60000;51.030;7.024;2023-07-31T01:18:26;16.98;85.03
72128;DHT22;60000;51.030;7.024;2023-07-31T01:20:57;17.06;84.46
72128;DHT22;60000;51.030;7.024;2023-07-31T01:23:51;17.08;84.27
72128;DHT22;60000;51.030;7.024;2023-07-31T01:26:23;17.08;84.19
72128;DHT22;60000;51.030;7.024;2023-07-31T01:29:17;17.11;83.90
72128;DHT22;60000;51.030;7.024;2023-07-31T01:31:47;17.08;83.89
72128;DHT22;60000;51.030;7.024;2023-07-31T01:34:14;17.12;83.46
72128;DHT22;60000;51.030;7.024;2023-07-31T01:36:41;17.14;83.18
72128;DHT22;60000;51.030;7.024;2023-07-31T01:39:06;17.15;83.09
72128;DHT22;60000;51.030;7.024;2023-07-31T01:41:32;17.17;83.13
72128;DHT22;60000;51.030;7.024;2023-07-31T01:43:57;17.17;83.00
72128;DHT22;60000;51.030;7.024;2023-07-31T01:46:22;17.19;82.67
72128;DHT22;60000;51.030;7.024;2023-07-31T01:48:48;17.21;82.58
72128;DHT22;60000;51.030;7.024;2023-07-31T01:51:13;17.22;82.43
72128;DHT22;60000;51.030;7.024;2023-07-31T01:53:41;17.27;82.43
72128;DHT22;60000;51.030;7.024;2023-07-31T01:56:07;17.25;82.29
72128;DHT22;60000;51.030;7.024;2023-07-31T01:58:32;17.27;82.20
72128;DHT22;60000;51.030;7.024;2023-07-31T02:00:57;17.28;82.39
72128;DHT22;60000;51.030;7.024;2023-07-31T02:03:23;17.25;82.44
72128;DHT22;60000;51.030;7.024;2023-07-31T02:05:49;17.29;82.25
72128;DHT22;60000;51.030;7.024;2023-07-31T02:08:15;17.27;82.31
72128;DHT22;60000;51.030;7.024;2023-07-31T02:10:40;17.24;82.27
72128;DHT22;60000;51.030;7.024;2023-07-31T02:13:05;17.24;82.42
72128;DHT22;60000;51.030;7.024;2023-07-31T02:15:31;17.22;82.65
72128;DHT22;60000;51.030;7.024;2023-07-31T02:17:56;17.21;82.64
72128;DHT22;60000;51.030;7.024;2023-07-31T02:20:22;17.24;82.59
72128;DHT22;60000;51.030;7.024;2023-07-31T02:22:47;17.22;82.67
72128;DHT22;60000;51.030;7.024;2023-07-31T02:25:13;17.21;82.69
72128;DHT22;60000;51.030;7.024;2023-07-31T02:27:38;17.22;82.80
72128;DHT22;60000;51.030;7.024;2023-07-31T02:30:06;17.21;82.90
72128;DHT22;60000;51.030;7.024;2023-07-31T02:32:32;17.25;82.76
72128;DHT22;60000;51.030;7.024;2023-07-31T02:34:57;17.28;82.68
72128;DHT22;60000;51.030;7.024;2023-07-31T02:37:23;17.29;82.80
72128;DHT22;60000;51.030;7.024;2023-07-31T02:39:48;17.31;82.83
72128;DHT22;60000;51.030;7.024;2023-07-31T02:42:14;17.29;82.88
72128;DHT22;60000;51.030;7.024;2023-07-31T02:44:40;17.31;82.79
72128;DHT22;60000;51.030;7.024;2023-07-31T02:47:05;17.31;82.79
72128;DHT22;60000;51.030;7.024;2023-07-31T02:49:31;17.29;82.80
72128;DHT22;60000;51.030;7.024;2023-07-31T02:51:56;17.31;82.98
72128;DHT22;60000;51.030;7.024;2023-07-31T02:54:22;17.29;83.08
72128;DHT22;60000;51.030;7.024;2023-07-31T02:56:47;17.27;83.17
72128;DHT22;60000;51.030;7.024;2023-07-31T02:59:13;17.28;83.32
72128;DHT22;60000;51.030;7.024;2023-07-31T03:01:38;17.27;83.31
72128;DHT22;60000;51.030;7.024;2023-07-31T03:04:04;17.28;83.20
72128;DHT22;60000;51.030;7.024;2023-07-31T03:06:30;17.31;83.02
72128;DHT22;60000;51.030;7.024;2023-07-31T03:08:55;17.31;82.90
72128;DHT22;60000;51.030;7.024;2023-07-31T03:11:20;17.29;82.85
72128;DHT22;60000;51.030;7.024;2023-07-31T03:13:45;17.34;82.74
72128;DHT22;60000;51.030;7.024;2023-07-31T03:16:11;17.32;82.70
72128;DHT22;60000;51.030;7.024;2023-07-31T03:18:36;17.34;82.79
72128;DHT22;60000;51.030;7.024;2023-07-31T03:21:01;17.35;82.88
72128;DHT22;60000;51.030;7.024;2023-07-31T03:23:27;17.35;82.87
72128;DHT22;60000;51.030;7.024;2023-07-31T03:26:06;17.36;82.85
72128;DHT22;60000;51.030;7.024;2023-07-31T03:28:32;17.36;82.82
72128;DHT22;60000;51.030;7.024;2023-07-31T03:30:57;17.35;82.86
72128;DHT22;60000;51.030;7.024;2023-07-31T03:33:22;17.38;83.00
72128;DHT22;60000;51.030;7.024;2023-07-31T03:35:48;17.35;82.93
72128;DHT22;60000;51.030;7.024;2023-07-31T03:38:13;17.38;82.74
72128;DHT22;60000;51.030;7.024;2023-07-31T03:40:39;17.38;82.61
72128;DHT22;60000;51.030;7.024;2023-07-31T03:43:05;17.39;82.66
72128;DHT22;60000;51.030;7.024;2023-07-31T03:45:30;17.39;82.58
72128;DHT22;60000;51.030;7.024;2023-07-31T03:47:55;17.40;82.56
72128;DHT22;60000;51.030;7.024;2023-07-31T03:50:21;17.42;82.53
72128;DHT22;60000;51.030;7.024;2023-07-31T03:52:46;17.43;82.43
72128;DHT22;60000;51.030;7.024;2023-07-31T03:55:12;17.50;81.96
72128;DHT22;60000;51.030;7.024;2023-07-31T03:57:37;17.53;81.64
72128;DHT22;60000;51.030;7.024;2023-07-31T04:00:04;17.50;81.79
72128;DHT22;60000;51.030;7.024;2023-07-31T04:02:29;17.50;81.87
72128;DHT22;60000;51.030;7.024;2023-07-31T04:04:55;17.55;81.99
72128;DHT22;60000;51.030;7.024;2023-07-31T04:07:20;17.49;82.10
72128;DHT22;60000;51.030;7.024;2023-07-31T04:09:45;17.52;82.31
72128;DHT22;60000;51.030;7.024;2023-07-31T04:12:10;17.50;82.27
72128;DHT22;60000;51.030;7.024;2023-07-31T04:14:36;17.50;82.42
72128;DHT22;60000;51.030;7.024;2023-07-31T04:17:02;17.49;82.54
72128;DHT22;60000;51.030;7.024;2023-07-31T04:19:27;17.49;82.57
72128;DHT22;60000;51.030;7.024;2023-07-31T04:21:52;17.46;82.73
72128;DHT22;60000;51.030;7.024;2023-07-31T04:24:18;17.48;82.85
72128;DHT22;60000;51.030;7.024;2023-07-31T04:26:49;17.45;82.76
72128;DHT22;60000;51.030;7.024;2023-07-31T04:29:14;17.46;82.93
72128;DHT22;60000;51.030;7.024;2023-07-31T04:31:41;17.43;83.07
72128;DHT22;60000;51.030;7.024;2023-07-31T04:34:06;17.42;83.07
72128;DHT22;60000;51.030;7.024;2023-07-31T04:36:32;17.42;83.15
72128;DHT22;60000;51.030;7.024;2023-07-31T04:38:58;17.40;83.19
72128;DHT22;60000;51.030;7.024;2023-07-31T04:41:23;17.42;83.30
72128;DHT22;60000;51.030;7.024;2023-07-31T04:43:48;17.43;83.39
72128;DHT22;60000;51.030;7.024;2023-07-31T04:46:13;17.42;83.49
72128;DHT22;60000;51.030;7.024;2023-07-31T04:48:39;17.39;83.51
72128;DHT22;60000;51.030;7.024;2023-07-31T04:51:04;17.40;83.64
72128;DHT22;60000;51.030;7.024;2023-07-31T04:53:29;17.40;83.69
72128;DHT22;60000;51.030;7.024;2023-07-31T04:55:55;17.39;83.78
72128;DHT22;60000;51.030;7.024;2023-07-31T04:58:20;17.42;83.71
72128;DHT22;60000;51.030;7.024;2023-07-31T05:00:45;17.42;83.64
72128;DHT22;60000;51.030;7.024;2023-07-31T05:03:11;17.40;83.64
72128;DHT22;60000;51.030;7.024;2023-07-31T05:05:36;17.42;83.57
72128;DHT22;60000;51.030;7.024;2023-07-31T05:08:02;17.46;83.36
72128;DHT22;60000;51.030;7.024;2023-07-31T05:10:27;17.50;83.51
72128;DHT22;60000;51.030;7.024;2023-07-31T05:12:53;17.53;83.45
72128;DHT22;60000;51.030;7.024;2023-07-31T05:15:18;17.58;83.29
72128;DHT22;60000;51.030;7.024;2023-07-31T05:17:43;17.59;83.20
72128;DHT22;60000;51.030;7.024;2023-07-31T05:20:09;17.66;83.00
72128;DHT22;60000;51.030;7.024;2023-07-31T05:22:34;17.72;82.67
72128;DHT22;60000;51.030;7.024;2023-07-31T05:24:59;17.77;82.54
72128;DHT22;60000;51.030;7.024;2023-07-31T05:27:25;17.80;82.05
72128;DHT22;60000;51.030;7.024;2023-07-31T05:29:50;17.85;81.87
72128;DHT22;60000;51.030;7.024;2023-07-31T05:32:15;17.89;81.42
72128;DHT22;60000;51.030;7.024;2023-07-31T05:34:41;17.96;81.07
72128;DHT22;60000;51.030;7.024;2023-07-31T05:37:07;17.99;80.90
72128;DHT22;60000;51.030;7.024;2023-07-31T05:39:32;18.07;80.69
72128;DHT22;60000;51.030;7.024;2023-07-31T05:41:57;18.08;80.25
72128;DHT22;60000;51.030;7.024;2023-07-31T05:44:23;18.14;79.79
72128;DHT22;60000;51.030;7.024;2023-07-31T05:46:48;18.11;79.52
72128;DHT22;60000;51.030;7.024;2023-07-31T05:49:13;18.17;79.22
72128;DHT22;60000;51.030;7.024;2023-07-31T05:51:39;18.17;79.02
72128;DHT22;60000;51.030;7.024;2023-07-31T05:54:04;18.18;79.14
72128;DHT22;60000;51.030;7.024;2023-07-31T05:56:29;18.20;79.36
72128;DHT22;60000;51.030;7.024;2023-07-31T05:58:55;18.20;79.26
72128;DHT22;60000;51.030;7.024;2023-07-31T06:01:22;18.18;79.18
72128;DHT22;60000;51.030;7.024;2023-07-31T06:03:47;18.18;79.26
72128;DHT22;60000;51.030;7.024;2023-07-31T06:06:13;18.17;79.21
72128;DHT22;60000;51.030;7.024;2023-07-31T06:08:39;18.16;79.52
72128;DHT22;60000;51.030;7.024;2023-07-31T06:11:05;18.11;80.02
72128;DHT22;60000;51.030;7.024;2023-07-31T06:13:31;18.07;80.56
72128;DHT22;60000;51.030;7.024;2023-07-31T06:15:56;17.99;81.01
72128;DHT22;60000;51.030;7.024;2023-07-31T06:18:21;17.93;81.63
72128;DHT22;60000;51.030;7.024;2023-07-31T06:20:47;17.85;82.12
72128;DHT22;60000;51.030;7.024;2023-07-31T06:23:12;17.79;82.73
72128;DHT22;60000;51.030;7.024;2023-07-31T06:25:38;17.72;83.05
72128;DHT22;60000;51.030;7.024;2023-07-31T06:28:03;17.68;83.48
72128;DHT22;60000;51.030;7.024;2023-07-31T06:30:28;17.62;83.84
72128;DHT22;60000;51.030;7.024;2023-07-31T06:32:53;17.59;84.24
72128;DHT22;60000;51.030;7.024;2023-07-31T06:35:19;17.59;84.49
72128;DHT22;60000;51.030;7.024;2023-07-31T06:37:44;17.56;84.73
72128;DHT22;60000;51.030;7.024;2023-07-31T06:40:10;17.58;85.02
72128;DHT22;60000;51.030;7.024;2023-07-31T06:42:35;17.56;85.14
72128;DHT22;60000;51.030;7.024;2023-07-31T06:45:02;17.55;85.30
72128;DHT22;60000;51.030;7.024;2023-07-31T06:47:27;17.61;85.63
72128;DHT22;60000;51.030;7.024;2023-07-31T06:49:52;17.61;85.48
72128;DHT22;60000;51.030;7.024;2023-07-31T06:52:18;17.65;85.69
72128;DHT22;60000;51.030;7.024;2023-07-31T06:54:43;17.66;85.84
72128;DHT22;60000;51.030;7.024;2023-07-31T06:57:08;17.68;85.82
72128;DHT22;60000;51.030;7.024;2023-07-31T06:59:34;17.72;85.99
72128;DHT22;60000;51.030;7.024;2023-07-31T07:01:59;17.73;85.74
72128;DHT22;60000;51.030;7.024;2023-07-31T07:04:24;17.76;85.70
72128;DHT22;60000;51.030;7.024;2023-07-31T07:06:50;17.77;85.71
72128;DHT22;60000;51.030;7.024;2023-07-31T07:09:15;17.76;85.72
72128;DHT22;60000;51.030;7.024;2023-07-31T07:11:40;17.79;85.82
72128;DHT22;60000;51.030;7.024;2023-07-31T07:14:06;17.79;85.86
72128;DHT22;60000;51.030;7.024;2023-07-31T07:16:31;17.80;85.67
72128;DHT22;60000;51.030;7.024;2023-07-31T07:18:56;17.79;85.71
72128;DHT22;60000;51.030;7.024;2023-07-31T07:21:22;17.85;86.03
72128;DHT22;60000;51.030;7.024;2023-07-31T07:23:48;17.86;86.09
72128;DHT22;60000;51.030;7.024;2023-07-31T07:26:13;17.89;85.92
72128;DHT22;60000;51.030;7.024;2023-07-31T07:28:38;17.91;85.95
72128;DHT22;60000;51.030;7.024;2023-07-31T07:31:03;17.90;86.25
72128;DHT22;60000;51.030;7.024;2023-07-31T07:33:29;17.93;86.22
72128;DHT22;60000;51.030;7.024;2023-07-31T07:35:54;17.94;86.31
72128;DHT22;60000;51.030;7.024;2023-07-31T07:38:19;17.93;86.35
72128;DHT22;60000;51.030;7.024;2023-07-31T07:40:45;17.93;86.64
72128;DHT22;60000;51.030;7.024;2023-07-31T07:43:15;17.93;86.82
72128;DHT22;60000;51.030;7.024;2023-07-31T07:45:41;17.91;86.95
72128;DHT22;60000;51.030;7.024;2023-07-31T07:48:06;17.89;87.06
72128;DHT22;60000;51.030;7.024;2023-07-31T07:50:31;17.86;87.21
72128;DHT22;60000;51.030;7.024;2023-07-31T07:52:58;17.82;87.38
72128;DHT22;60000;51.030;7.024;2023-07-31T07:55:23;17.79;87.14
72128;DHT22;60000;51.030;7.024;2023-07-31T07:57:49;17.75;87.42
72128;DHT22;60000;51.030;7.024;2023-07-31T08:00:15;17.73;87.70
72128;DHT22;60000;51.030;7.024;2023-07-31T08:02:42;17.73;87.98
72128;DHT22;60000;51.030;7.024;2023-07-31T08:05:07;17.72;88.19
72128;DHT22;60000;51.030;7.024;2023-07-31T08:07:33;17.72;88.36
72128;DHT22;60000;51.030;7.024;2023-07-31T08:09:58;17.69;88.48
72128;DHT22;60000;51.030;7.024;2023-07-31T08:12:24;17.72;88.29
72128;DHT22;60000;51.030;7.024;2023-07-31T08:14:49;17.66;87.93
72128;DHT22;60000;51.030;7.024;2023-07-31T08:17:15;17.65;87.40
72128;DHT22;60000;51.030;7.024;2023-07-31T08:19:40;17.55;86.72
72128;DHT22;60000;51.030;7.024;2023-07-31T08:22:06;17.53;87.21
72128;DHT22;60000;51.030;7.024;2023-07-31T08:24:31;17.52;87.44
72128;DHT22;60000;51.030;7.024;2023-07-31T08:26:57;17.53;87.76
72128;DHT22;60000;51.030;7.024;2023-07-31T08:29:22;17.53;87.87
72128;DHT22;60000;51.030;7.024;2023-07-31T08:31:49;17.50;87.58
72128;DHT22;60000;51.030;7.024;2023-07-31T08:34:14;17.52;87.71
72128;DHT22;60000;51.030;7.024;2023-07-31T08:36:39;17.58;87.95
72128;DHT22;60000;51.030;7.024;2023-07-31T08:39:05;17.58;87.81
72128;DHT22;60000;51.030;7.024;2023-07-31T08:41:30;17.59;87.65
72128;DHT22;60000;51.030;7.024;2023-07-31T08:43:56;17.59;87.84
72128;DHT22;60000;51.030;7.024;2023-07-31T08:46:22;17.59;87.59
72128;DHT22;60000;51.030;7.024;2023-07-31T08:48:50;17.61;87.71
72128;DHT22;60000;51.030;7.024;2023-07-31T08:51:19;17.61;87.50
72128;DHT22;60000;51.030;7.024;2023-07-31T08:53:44;17.62;87.63
72128;DHT22;60000;51.030;7.024;2023-07-31T08:56:11;17.65;87.34
72128;DHT22;60000;51.030;7.024;2023-07-31T08:58:38;17.63;87.43
72128;DHT22;60000;51.030;7.024;2023-07-31T09:01:04;17.69;87.53
72128;DHT22;60000;51.030;7.024;2023-07-31T09:03:34;17.69;87.54
72128;DHT22;60000;51.030;7.024;2023-07-31T09:06:02;17.72;87.37
72128;DHT22;60000;51.030;7.024;2023-07-31T09:08:30;17.70;87.16
72128;DHT22;60000;51.030;7.024;2023-07-31T09:11:02;17.73;87.33
72128;DHT22;60000;51.030;7.024;2023-07-31T09:13:31;17.75;87.19
72128;DHT22;60000;51.030;7.024;2023-07-31T09:15:57;17.76;87.43
72128;DHT22;60000;51.030;7.024;2023-07-31T09:18:23;17.82;87.43
72128;DHT22;60000;51.030;7.024;2023-07-31T09:21:05;17.89;87.65
72128;DHT22;60000;51.030;7.024;2023-07-31T09:23:45;17.91;87.65
72128;DHT22;60000;51.030;7.024;2023-07-31T09:26:11;17.91;87.35
72128;DHT22;60000;51.030;7.024;2023-07-31T09:28:53;17.82;86.57
72128;DHT22;60000;51.030;7.024;2023-07-31T09:31:31;17.82;86.33
72128;DHT22;60000;51.030;7.024;2023-07-31T09:33:57;17.79;86.21
72128;DHT22;60000;51.030;7.024;2023-07-31T09:36:22;17.77;86.24
72128;DHT22;60000;51.030;7.024;2023-07-31T09:38:47;17.77;86.07
72128;DHT22;60000;51.030;7.024;2023-07-31T09:41:13;17.77;86.13
72128;DHT22;60000;51.030;7.024;2023-07-31T09:43:38;17.79;86.14
72128;DHT22;60000;51.030;7.024;2023-07-31T09:46:13;17.79;86.37
72128;DHT22;60000;51.030;7.024;2023-07-31T09:48:42;17.80;86.07
72128;DHT22;60000;51.030;7.024;2023-07-31T09:51:10;17.82;86.44
72128;DHT22;60000;51.030;7.024;2023-07-31T09:53:36;17.89;86.51
72128;DHT22;60000;51.030;7.024;2023-07-31T09:56:04;17.91;86.29
72128;DHT22;60000;51.030;7.024;2023-07-31T09:58:34;17.96;86.41
72128;DHT22;60000;51.030;7.024;2023-07-31T10:01:01;18.03;86.41
72128;DHT22;60000;51.030;7.024;2023-07-31T10:03:29;18.13;86.73
72128;DHT22;60000;51.030;7.024;2023-07-31T10:05:57;18.21;86.50
72128;DHT22;60000;51.030;7.024;2023-07-31T10:08:28;18.30;86.20
72128;DHT22;60000;51.030;7.024;2023-07-31T10:10:58;18.41;86.45
72128;DHT22;60000;51.030;7.024;2023-07-31T10:13:24;18.48;85.95
72128;DHT22;60000;51.030;7.024;2023-07-31T10:15:53;18.51;85.21
72128;DHT22;60000;51.030;7.024;2023-07-31T10:18:19;18.51;84.92
72128;DHT22;60000;51.030;7.024;2023-07-31T10:20:48;18.55;84.89
72128;DHT22;60000;51.030;7.024;2023-07-31T10:23:14;18.65;85.33
72128;DHT22;60000;51.030;7.024;2023-07-31T10:25:41;18.75;85.15
72128;DHT22;60000;51.030;7.024;2023-07-31T10:28:08;18.82;85.05
72128;DHT22;60000;51.030;7.024;2023-07-31T10:30:37;18.86;84.63
72128;DHT22;60000;51.030;7.024;2023-07-31T10:33:05;18.92;84.78
72128;DHT22;60000;51.030;7.024;2023-07-31T10:35:31;18.98;85.04
72128;DHT22;60000;51.030;7.024;2023-07-31T10:38:09;19.05;84.88
72128;DHT22;60000;51.030;7.024;2023-07-31T10:40:35;19.07;84.98
72128;DHT22;60000;51.030;7.024;2023-07-31T10:43:02;19.02;84.62
72128;DHT22;60000;51.030;7.024;2023-07-31T10:45:33;19.00;84.33
72128;DHT22;60000;51.030;7.024;2023-07-31T10:50:32;18.88;83.85
72128;DHT22;60000;51.030;7.024;2023-07-31T10:52:58;18.89;83.97
72128;DHT22;60000;51.030;7.024;2023-07-31T10:55:27;18.85;83.63
72128;DHT22;60000;51.030;7.024;2023-07-31T10:57:55;18.84;83.97
72128;DHT22;60000;51.030;7.024;2023-07-31T11:03:25;18.82;82.95
72128;DHT22;60000;51.030;7.024;2023-07-31T11:06:03;18.86;82.93
72128;DHT22;60000;51.030;7.024;2023-07-31T11:08:35;18.95;82.91
72128;DHT22;60000;51.030;7.024;2023-07-31T11:13:29;18.88;82.88
72128;DHT22;60000;51.030;7.024;2023-07-31T11:15:55;18.86;83.19
72128;DHT22;60000;51.030;7.024;2023-07-31T11:18:20;18.88;83.91
72128;DHT22;60000;51.030;7.024;2023-07-31T11:20:46;18.91;83.86
72128;DHT22;60000;51.030;7.024;2023-07-31T11:23:11;18.98;84.33
72128;DHT22;60000;51.030;7.024;2023-07-31T11:25:38;19.10;84.29
72128;DHT22;60000;51.030;7.024;2023-07-31T11:28:13;19.28;84.08
72128;DHT22;60000;51.030;7.024;2023-07-31T11:30:40;19.71;84.11
72128;DHT22;60000;51.030;7.024;2023-07-31T11:33:06;20.05;83.21
72128;DHT22;60000;51.030;7.024;2023-07-31T11:35:33;20.25;82.12
72128;DHT22;60000;51.030;7.024;2023-07-31T11:37:59;20.39;81.37
72128;DHT22;60000;51.030;7.024;2023-07-31T11:40:24;20.42;80.80
72128;DHT22;60000;51.030;7.024;2023-07-31T11:43:04;20.35;80.04
72128;DHT22;60000;51.030;7.024;2023-07-31T11:45:29;20.29;79.48
72128;DHT22;60000;51.030;7.024;2023-07-31T11:47:56;20.29;79.04
72128;DHT22;60000;51.030;7.024;2023-07-31T11:50:22;20.19;78.28
72128;DHT22;60000;51.030;7.024;2023-07-31T11:52:52;20.16;77.89
72128;DHT22;60000;51.030;7.024;2023-07-31T11:55:20;20.21;78.06
72128;DHT22;60000;51.030;7.024;2023-07-31T11:57:45;20.25;77.08
72128;DHT22;60000;51.030;7.024;2023-07-31T12:00:12;20.30;76.56
72128;DHT22;60000;51.030;7.024;2023-07-31T12:02:39;20.30;75.64
72128;DHT22;60000;51.030;7.024;2023-07-31T12:05:10;20.25;76.30
72128;DHT22;60000;51.030;7.024;2023-07-31T12:07:50;20.23;76.28
72128;DHT22;60000;51.030;7.024;2023-07-31T12:10:32;20.21;76.40
72128;DHT22;60000;51.030;7.024;2023-07-31T12:13:02;20.18;76.87
72128;DHT22;60000;51.030;7.024;2023-07-31T12:15:38;20.23;77.52
72128;DHT22;60000;51.030;7.024;2023-07-31T12:18:15;20.18;77.04
72128;DHT22;60000;51.030;7.024;2023-07-31T12:23:07;20.16;76.74
72128;DHT22;60000;51.030;7.024;2023-07-31T12:25:35;20.22;76.25
72128;DHT22;60000;51.030;7.024;2023-07-31T12:28:05;20.25;76.62
72128;DHT22;60000;51.030;7.024;2023-07-31T12:30:33;20.28;76.39
72128;DHT22;60000;51.030;7.024;2023-07-31T12:33:13;20.26;76.10
72128;DHT22;60000;51.030;7.024;2023-07-31T12:35:45;20.30;75.27
72128;DHT22;60000;51.030;7.024;2023-07-31T12:38:12;20.28;75.27
72128;DHT22;60000;51.030;7.024;2023-07-31T12:40:39;20.21;75.72
72128;DHT22;60000;51.030;7.024;2023-07-31T12:43:04;20.21;75.05
72128;DHT22;60000;51.030;7.024;2023-07-31T12:45:33;20.21;75.12
72128;DHT22;60000;51.030;7.024;2023-07-31T12:47:59;20.23;75.52
72128;DHT22;60000;51.030;7.024;2023-07-31T12:50:25;20.29;74.98
72128;DHT22;60000;51.030;7.024;2023-07-31T12:52:53;20.35;74.60
72128;DHT22;60000;51.030;7.024;2023-07-31T12:55:18;20.37;74.14
72128;DHT22;60000;51.030;7.024;2023-07-31T12:57:44;20.42;74.62
72128;DHT22;60000;51.030;7.024;2023-07-31T13:00:10;20.49;74.88
72128;DHT22;60000;51.030;7.024;2023-07-31T13:02:36;20.54;74.60
72128;DHT22;60000;51.030;7.024;2023-07-31T13:05:01;20.60;74.20
72128;DHT22;60000;51.030;7.024;2023-07-31T13:07:27;20.62;74.14
72128;DHT22;60000;51.030;7.024;2023-07-31T13:09:52;20.67;74.51
72128;DHT22;60000;51.030;7.024;2023-07-31T13:12:17;20.73;74.42
72128;DHT22;60000;51.030;7.024;2023-07-31T13:14:43;20.81;74.12
72128;DHT22;60000;51.030;7.024;2023-07-31T13:17:08;20.90;74.40
72128;DHT22;60000;51.030;7.024;2023-07-31T13:19:33;20.91;73.93
72128;DHT22;60000;51.030;7.024;2023-07-31T13:21:59;20.90;73.15
72128;DHT22;60000;51.030;7.024;2023-07-31T13:24:25;20.88;72.54
72128;DHT22;60000;51.030;7.024;2023-07-31T13:26:50;20.87;72.64
72128;DHT22;60000;51.030;7.024;2023-07-31T13:29:15;20.84;72.89
72128;DHT22;60000;51.030;7.024;2023-07-31T13:31:41;20.84;72.62
72128;DHT22;60000;51.030;7.024;2023-07-31T13:34:07;20.83;72.27
72128;DHT22;60000;51.030;7.024;2023-07-31T13:36:32;20.80;72.47
72128;DHT22;60000;51.030;7.024;2023-07-31T13:39:01;20.85;72.92
72128;DHT22;60000;51.030;7.024;2023-07-31T13:41:27;20.95;73.27
72128;DHT22;60000;51.030;7.024;2023-07-31T13:43:52;21.12;72.92
72128;DHT22;60000;51.030;7.024;2023-07-31T13:46:18;21.32;72.87
72128;DHT22;60000;51.030;7.024;2023-07-31T13:48:43;21.38;71.30
72128;DHT22;60000;51.030;7.024;2023-07-31T13:51:08;21.48;71.75
72128;DHT22;60000;51.030;7.024;2023-07-31T13:53:36;21.61;71.89
72128;DHT22;60000;51.030;7.024;2023-07-31T13:56:02;21.61;71.36
72128;DHT22;60000;51.030;7.024;2023-07-31T13:58:27;21.65;71.32
72128;DHT22;60000;51.030;7.024;2023-07-31T14:00:53;21.76;71.08
72128;DHT22;60000;51.030;7.024;2023-07-31T14:03:18;21.90;70.42
72128;DHT22;60000;51.030;7.024;2023-07-31T14:05:43;22.04;68.92
72128;DHT22;60000;51.030;7.024;2023-07-31T14:08:08;22.13;68.11
72128;DHT22;60000;51.030;7.024;2023-07-31T14:10:34;22.14;68.39
72128;DHT22;60000;51.030;7.024;2023-07-31T14:12:59;22.13;67.76
72128;DHT22;60000;51.030;7.024;2023-07-31T14:15:24;22.01;67.50
72128;DHT22;60000;51.030;7.024;2023-07-31T14:17:50;21.90;68.13
72128;DHT22;60000;51.030;7.024;2023-07-31T14:20:15;21.80;68.12
72128;DHT22;60000;51.030;7.024;2023-07-31T14:22:41;21.73;68.77
72128;DHT22;60000;51.030;7.024;2023-07-31T14:25:06;21.65;69.46
72128;DHT22;60000;51.030;7.024;2023-07-31T14:27:33;21.52;69.08
72128;DHT22;60000;51.030;7.024;2023-07-31T14:29:58;21.35;69.08
72128;DHT22;60000;51.030;7.024;2023-07-31T14:32:26;21.30;69.42
72128;DHT22;60000;51.030;7.024;2023-07-31T14:34:55;21.20;69.43
72128;DHT22;60000;51.030;7.024;2023-07-31T14:37:20;21.08;69.30
72128;DHT22;60000;51.030;7.024;2023-07-31T14:39:50;21.07;69.80
72128;DHT22;60000;51.030;7.024;2023-07-31T14:42:15;21.03;69.63
72128;DHT22;60000;51.030;7.024;2023-07-31T14:44:43;20.93;70.00
72128;DHT22;60000;51.030;7.024;2023-07-31T14:47:08;20.85;70.14
72128;DHT22;60000;51.030;7.024;2023-07-31T14:49:34;20.84;70.27
72128;DHT22;60000;51.030;7.024;2023-07-31T14:51:59;20.79;70.37
72128;DHT22;60000;51.030;7.024;2023-07-31T14:54:24;20.73;70.33
72128;DHT22;60000;51.030;7.024;2023-07-31T14:56:50;20.72;70.41
72128;DHT22;60000;51.030;7.024;2023-07-31T14:59:15;20.74;70.64
72128;DHT22;60000;51.030;7.024;2023-07-31T15:01:41;20.84;70.67
72128;DHT22;60000;51.030;7.024;2023-07-31T15:04:06;20.88;70.34
72128;DHT22;60000;51.030;7.024;2023-07-31T15:06:32;20.88;70.26
72128;DHT22;60000;51.030;7.024;2023-07-31T15:08:57;20.93;69.99
72128;DHT22;60000;51.030;7.024;2023-07-31T15:11:23;20.91;69.74
72128;DHT22;60000;51.030;7.024;2023-07-31T15:13:48;20.90;69.99
72128;DHT22;60000;51.030;7.024;2023-07-31T15:16:13;20.87;70.04
72128;DHT22;60000;51.030;7.024;2023-07-31T15:18:39;20.85;69.94
72128;DHT22;60000;51.030;7.024;2023-07-31T15:21:04;20.84;69.68
72128;DHT22;60000;51.030;7.024;2023-07-31T15:23:31;20.81;69.73
72128;DHT22;60000;51.030;7.024;2023-07-31T15:25:57;20.79;70.23
72128;DHT22;60000;51.030;7.024;2023-07-31T15:28:22;20.80;69.69
72128;DHT22;60000;51.030;7.024;2023-07-31T15:30:47;20.80;69.81
72128;DHT22;60000;51.030;7.024;2023-07-31T15:33:13;20.79;69.64
72128;DHT22;60000;51.030;7.024;2023-07-31T15:35:38;20.73;69.71
72128;DHT22;60000;51.030;7.024;2023-07-31T15:38:04;20.69;69.66
72128;DHT22;60000;51.030;7.024;2023-07-31T15:40:29;20.70;69.83